Time;durP1;ratioP1;P1;durP2;ratioP2;P2;SDS_P1;SDS_P2;PMS_P1;PMS_P2;Temp;Humidity;BMP_temperature;BMP_pressure;BME280_temperature;BME280_humidity;BME280_pressure;Samples;Min_cycle;Max_cycle;Signal;HPM_P1;HPM_P2
2022/04/09 00:01:04;;;;;;;;;;;;;;;20.74;44.53;97442.91;4452566;32;34828;-83
2022/04/09 00:03:31;;;;;;;;;;;;;;;20.88;44.15;97429.81;4464733;32;33853;-81
2022/04/09 00:05:59;;;;;;;;;;;;;;;21.23;43.20;97422.53;4463514;32;33532;-82
2022/04/09 00:08:26;;;;;;;;;;;;;;;21.26;43.31;97425.00;4462616;32;35107;-83
2022/04/09 00:10:53;;;;;;;;;;;;;;;21.33;43.00;97423.72;4465858;32;34514;-82
2022/04/09 00:13:21;;;;;;;;;;;;;;;21.11;43.39;97410.06;4456606;32;34151;-82
2022/04/09 00:15:48;;;;;;;;;;;;;;;21.10;43.44;97410.97;4452777;32;33547;-82
2022/04/09 00:18:16;;;;;;;;;;;;;;;21.00;43.59;97401.94;4457220;32;33228;-82
2022/04/09 00:20:43;;;;;;;;;;;;;;;21.07;43.50;97392.75;4466451;32;34129;-83
2022/04/09 00:23:10;;;;;;;;;;;;;;;21.04;43.53;97387.66;4464612;32;35146;-83
2022/04/09 00:25:38;;;;;;;;;;;;;;;21.38;42.69;97371.56;4451948;32;34280;-82
2022/04/09 00:28:05;;;;;;;;;;;;;;;21.21;43.02;97374.31;4465063;32;34150;-83
2022/04/09 00:30:32;;;;;;;;;;;;;;;21.08;43.16;97386.53;4466799;32;34513;-82
2022/04/09 00:32:59;;;;;;;;;;;;;;;20.83;43.73;97380.03;4463454;32;35065;-82
2022/04/09 00:35:27;;;;;;;;;;;;;;;21.15;42.95;97379.97;4451687;32;34080;-83
2022/04/09 00:37:54;;;;;;;;;;;;;;;21.19;42.91;97365.66;4465945;32;33684;-82
2022/04/09 00:40:23;;;;;;;;;;;;;;;21.26;42.68;97372.28;4467188;32;33953;-83
2022/04/09 00:42:52;;;;;;;;;;;;;;;20.92;43.49;97360.22;4449841;32;33606;-83
2022/04/09 00:45:19;;;;;;;;;;;;;;;21.10;43.25;97363.56;4451285;32;33793;-82
2022/04/09 00:47:47;;;;;;;;;;;;;;;21.22;42.84;97364.66;4456285;32;34245;-82
2022/04/09 00:50:14;;;;;;;;;;;;;;;20.82;43.54;97372.22;4437212;32;34775;-82
2022/04/09 00:52:49;;;;;;;;;;;;;;;20.98;43.15;97377.44;4437886;32;33943;-82
2022/04/09 00:56:13;;;;;;;;;;;;;;;21.04;43.17;97377.09;4454838;32;34519;-82
2022/04/09 00:58:10;;;;;;;;;;;;;;;21.05;43.17;97399.88;4443297;32;34015;-82
2022/04/09 01:00:37;;;;;;;;;;;;;;;20.63;44.30;97410.13;4439058;32;34039;-82
2022/04/09 01:03:05;;;;;;;;;;;;;;;20.45;44.55;97424.25;4442064;32;34499;-83
2022/04/09 01:05:32;;;;;;;;;;;;;;;20.52;44.51;97427.44;4468488;32;33455;-83
2022/04/09 01:07:59;;;;;;;;;;;;;;;20.10;45.07;97426.19;4445090;32;34119;-83
2022/04/09 01:10:27;;;;;;;;;;;;;;;20.64;44.08;97432.03;4438938;32;35237;-82
2022/04/09 01:12:54;;;;;;;;;;;;;;;20.23;45.31;97421.97;4454054;32;35321;-83
2022/04/09 01:15:22;;;;;;;;;;;;;;;20.22;44.65;97396.56;4453868;32;33482;-84
2022/04/09 01:17:49;;;;;;;;;;;;;;;19.60;46.08;97385.81;4468057;32;34197;-82
2022/04/09 01:20:17;;;;;;;;;;;;;;;19.08;47.66;97377.09;4468196;32;34864;-82
2022/04/09 01:22:45;;;;;;;;;;;;;;;19.40;47.19;97383.38;4468346;32;34401;-82
2022/04/09 01:25:13;;;;;;;;;;;;;;;19.61;46.92;97384.88;4464850;32;33254;-83
2022/04/09 01:27:41;;;;;;;;;;;;;;;20.17;45.88;97396.84;4454464;32;33867;-82
2022/04/09 01:30:08;;;;;;;;;;;;;;;18.65;49.13;97389.69;4453539;32;33675;-83
2022/04/09 01:32:35;;;;;;;;;;;;;;;19.84;46.39;97396.84;4468646;32;34266;-82
2022/04/09 01:35:03;;;;;;;;;;;;;;;19.87;46.20;97415.09;4455698;32;34242;-82
2022/04/09 01:37:31;;;;;;;;;;;;;;;19.33;47.66;97409.09;4454756;32;33850;-82
2022/04/09 01:39:59;;;;;;;;;;;;;;;19.80;46.67;97418.13;4468272;32;34799;-83
2022/04/09 01:42:26;;;;;;;;;;;;;;;19.16;48.01;97427.47;4454162;32;33667;-82
2022/04/09 01:44:55;;;;;;;;;;;;;;;19.69;46.97;97418.69;4463627;32;33316;-83
2022/04/09 01:47:23;;;;;;;;;;;;;;;20.18;45.91;97429.25;4452912;32;34964;-83
2022/04/09 01:49:50;;;;;;;;;;;;;;;20.45;45.35;97436.59;4453046;32;34027;-83
2022/04/09 01:52:18;;;;;;;;;;;;;;;20.19;46.08;97433.56;4453421;32;33779;-83
2022/04/09 01:54:45;;;;;;;;;;;;;;;20.56;45.19;97437.72;4457076;32;33636;-83
2022/04/09 01:57:13;;;;;;;;;;;;;;;19.28;48.19;97419.00;4456056;32;34981;-83
2022/04/09 01:59:43;;;;;;;;;;;;;;;20.45;45.49;97415.53;4465577;32;33962;-85
2022/04/09 02:02:11;;;;;;;;;;;;;;;20.31;45.80;97446.09;4452815;32;34461;-83
2022/04/09 02:04:38;;;;;;;;;;;;;;;19.42;47.94;97421.75;4447122;32;32794;-84
2022/04/09 02:07:06;;;;;;;;;;;;;;;19.87;46.57;97422.16;4468559;32;34939;-83
2022/04/09 02:09:33;;;;;;;;;;;;;;;19.58;47.06;97429.72;4460107;32;35117;-84
2022/04/09 02:12:00;;;;;;;;;;;;;;;19.47;47.25;97415.44;4462590;32;34495;-83
2022/04/09 02:14:29;;;;;;;;;;;;;;;18.56;49.89;97417.25;4457388;32;33823;-84
2022/04/09 02:16:56;;;;;;;;;;;;;;;18.81;49.60;97414.31;4452512;32;33058;-83
2022/04/09 02:19:23;;;;;;;;;;;;;;;18.53;49.84;97406.03;4453257;32;34715;-84
2022/04/09 02:21:51;;;;;;;;;;;;;;;18.78;49.31;97406.56;4453285;32;34293;-83
2022/04/09 02:24:18;;;;;;;;;;;;;;;18.30;50.83;97399.25;4461655;32;32967;-83
2022/04/09 02:26:46;;;;;;;;;;;;;;;18.04;51.67;97382.09;4460977;32;34902;-81
2022/04/09 02:29:13;;;;;;;;;;;;;;;17.91;52.34;97393.09;4465789;32;35308;-83
2022/04/09 02:31:40;;;;;;;;;;;;;;;18.12;52.06;97395.69;4452340;32;34362;-84
2022/04/09 02:34:08;;;;;;;;;;;;;;;17.53;53.74;97405.25;4455634;32;34212;-83
2022/04/09 02:36:36;;;;;;;;;;;;;;;17.87;52.76;97417.75;4452923;32;34006;-83
2022/04/09 02:39:04;;;;;;;;;;;;;;;18.50;51.25;97417.50;4438756;32;35056;-82
2022/04/09 02:41:32;;;;;;;;;;;;;;;18.81;50.32;97424.81;4446576;32;33646;-82
2022/04/09 02:44:00;;;;;;;;;;;;;;;18.35;51.39;97419.09;4461483;32;33431;-83
2022/04/09 02:46:27;;;;;;;;;;;;;;;18.09;52.32;97432.53;4467971;32;34234;-82
2022/04/09 02:48:55;;;;;;;;;;;;;;;18.32;51.53;97440.19;4468092;32;34210;-83
2022/04/09 02:51:23;;;;;;;;;;;;;;;18.74;50.89;97443.56;4467167;32;34238;-83
2022/04/09 02:53:50;;;;;;;;;;;;;;;18.66;51.02;97443.88;4458420;32;34248;-83
2022/04/09 02:56:17;;;;;;;;;;;;;;;18.09;52.26;97437.78;4467918;32;35150;-83
2022/04/09 02:58:45;;;;;;;;;;;;;;;18.22;51.99;97428.41;4467757;32;33896;-82
2022/04/09 03:01:12;;;;;;;;;;;;;;;18.60;50.92;97425.78;4467411;32;33991;-82
2022/04/09 03:03:40;;;;;;;;;;;;;;;18.98;49.85;97429.25;4458989;32;33670;-82
2022/04/09 03:06:07;;;;;;;;;;;;;;;18.96;49.99;97439.81;4467358;32;33473;-83
2022/04/09 03:08:36;;;;;;;;;;;;;;;18.79;50.18;97447.69;4467229;32;35603;-83
2022/04/09 03:11:04;;;;;;;;;;;;;;;18.99;49.82;97435.34;4455884;32;35491;-83
2022/04/09 03:13:31;;;;;;;;;;;;;;;19.39;48.75;97431.59;4455828;32;33197;-82
2022/04/09 03:15:58;;;;;;;;;;;;;;;19.33;48.89;97422.25;4466865;32;33684;-83
2022/04/09 03:18:26;;;;;;;;;;;;;;;19.31;48.87;97416.19;4467283;32;35033;-83
2022/04/09 03:20:53;;;;;;;;;;;;;;;19.97;47.31;97427.78;4467852;32;35326;-83
2022/04/09 03:23:21;;;;;;;;;;;;;;;19.61;47.74;97447.97;4459794;32;33951;-83
2022/04/09 03:25:49;;;;;;;;;;;;;;;19.58;47.98;97444.62;4466275;32;35547;-82
2022/04/09 03:28:18;;;;;;;;;;;;;;;19.45;48.07;97442.66;4462180;32;34298;-82
2022/04/09 03:30:45;;;;;;;;;;;;;;;18.65;49.76;97439.56;4467616;32;34549;-83
2022/04/09 03:33:12;;;;;;;;;;;;;;;19.25;48.30;97437.56;4448746;32;34187;-83
2022/04/09 03:35:40;;;;;;;;;;;;;;;18.81;49.40;97426.59;4465454;32;34215;-83
2022/04/09 03:38:11;;;;;;;;;;;;;;;17.81;52.38;97420.66;4466587;32;34843;-83
2022/04/09 03:40:39;;;;;;;;;;;;;;;18.78;49.69;97406.56;4440466;32;34789;-82
2022/04/09 03:43:06;;;;;;;;;;;;;;;19.22;48.53;97411.44;4453025;32;34391;-83
2022/04/09 03:45:34;;;;;;;;;;;;;;;19.55;47.46;97439.56;4457490;32;34288;-83
2022/04/09 03:48:02;;;;;;;;;;;;;;;19.65;46.88;97436.41;4452274;32;34308;-83
2022/04/09 03:50:30;;;;;;;;;;;;;;;19.12;47.14;97428.56;4452193;32;35353;-82
2022/04/09 03:53:00;;;;;;;;;;;;;;;18.90;47.90;97424.37;4455556;32;33544;-83
2022/04/09 03:55:29;;;;;;;;;;;;;;;18.63;47.96;97410.75;4466882;32;34959;-84
2022/04/09 03:57:57;;;;;;;;;;;;;;;18.40;48.59;97424.09;4467104;32;34072;-83
2022/04/09 04:00:25;;;;;;;;;;;;;;;19.01;46.97;97412.47;4461003;32;33850;-84
2022/04/09 04:02:54;;;;;;;;;;;;;;;19.13;46.92;97415.38;4453300;32;33108;-83
2022/04/09 04:05:22;;;;;;;;;;;;;;;18.82;47.30;97418.63;4457854;32;34044;-83
2022/04/09 04:07:49;;;;;;;;;;;;;;;18.29;47.93;97403.63;4452670;32;34296;-83
2022/04/09 04:10:18;;;;;;;;;;;;;;;18.67;47.01;97403.56;4452225;32;34462;-83
2022/04/09 04:12:45;;;;;;;;;;;;;;;17.91;48.93;97403.59;4457129;32;33642;-84
2022/04/09 04:15:14;;;;;;;;;;;;;;;18.17;48.46;97393.69;4458773;32;34199;-84
2022/04/09 04:17:50;;;;;;;;;;;;;;;18.19;48.41;97391.88;4455891;32;35146;-85
2022/04/09 04:20:24;;;;;;;;;;;;;;;18.53;47.50;97398.16;4443644;32;34612;-84
2022/04/09 04:22:52;;;;;;;;;;;;;;;19.04;45.96;97388.69;4467218;32;33512;-83
2022/04/09 04:25:20;;;;;;;;;;;;;;;18.78;46.88;97390.81;4466094;32;34155;-84
2022/04/09 04:27:49;;;;;;;;;;;;;;;18.32;48.20;97376.41;4466409;32;35181;-83
2022/04/09 04:30:17;;;;;;;;;;;;;;;19.42;45.73;97371.84;4453440;32;35133;-83
2022/04/09 04:32:44;;;;;;;;;;;;;;;19.58;45.52;97374.50;4466950;32;33063;-83
2022/04/09 04:35:12;;;;;;;;;;;;;;;19.90;44.79;97370.22;4452408;32;34330;-83
2022/04/09 04:37:40;;;;;;;;;;;;;;;19.87;44.94;97372.19;4437400;32;32786;-83
2022/04/09 04:40:08;;;;;;;;;;;;;;;19.98;44.82;97368.97;4437482;32;34244;-82
2022/04/09 04:42:36;;;;;;;;;;;;;;;20.25;44.02;97364.00;4457578;32;34294;-83
2022/04/09 04:45:04;;;;;;;;;;;;;;;19.97;44.49;97352.34;4453467;32;34345;-83
2022/04/09 04:47:31;;;;;;;;;;;;;;;19.29;46.12;97349.75;4437687;32;34209;-86
2022/04/09 04:50:04;;;;;;;;;;;;;;;18.83;47.16;97341.59;4437561;32;34568;-84
2022/04/09 04:52:31;;;;;;;;;;;;;;;17.21;51.08;97336.78;4456538;32;33662;-84
2022/04/09 04:54:59;;;;;;;;;;;;;;;18.06;49.37;97344.34;4454290;32;33675;-84
2022/04/09 04:57:27;;;;;;;;;;;;;;;16.85;52.99;97331.31;4452014;32;33964;-84
2022/04/09 04:59:56;;;;;;;;;;;;;;;15.15;58.36;97314.28;4451308;32;34514;-84
2022/04/09 05:02:29;;;;;;;;;;;;;;;15.30;58.60;97308.53;4445710;32;33293;-85
2022/04/09 05:04:56;;;;;;;;;;;;;;;14.60;60.63;97301.38;4440767;32;34198;-84
2022/04/09 05:07:35;;;;;;;;;;;;;;;13.52;64.11;97318.56;4453463;32;34496;-84
2022/04/09 05:10:09;;;;;;;;;;;;;;;13.96;63.38;97328.59;4427730;32;784773;-84
2022/04/09 05:12:37;;;;;;;;;;;;;;;13.30;65.51;97322.69;4449603;32;33593;-84
2022/04/09 05:15:05;;;;;;;;;;;;;;;13.60;64.95;97320.97;4437049;32;34015;-84
2022/04/09 05:17:33;;;;;;;;;;;;;;;13.04;66.99;97316.41;4435940;32;34447;-84
2022/04/09 05:20:02;;;;;;;;;;;;;;;12.73;68.60;97321.56;4435452;32;35231;-84
2022/04/09 05:22:30;;;;;;;;;;;;;;;12.87;68.62;97318.59;4441831;32;34451;-83
2022/04/09 05:24:58;;;;;;;;;;;;;;;12.48;70.34;97318.72;4434250;32;33896;-84
2022/04/09 05:27:26;;;;;;;;;;;;;;;12.27;71.21;97338.25;4435423;32;35031;-84
2022/04/09 05:29:54;;;;;;;;;;;;;;;12.00;72.03;97334.53;4434409;32;33099;-85
2022/04/09 05:32:22;;;;;;;;;;;;;;;12.22;71.87;97347.06;4444673;32;34697;-84
2022/04/09 05:34:49;;;;;;;;;;;;;;;12.33;71.64;97329.47;4441519;32;33699;-83
2022/04/09 05:37:17;;;;;;;;;;;;;;;12.31;71.13;97320.84;4442007;32;34100;-84
2022/04/09 05:39:47;;;;;;;;;;;;;;;12.64;70.05;97314.81;4442836;32;34889;-84
2022/04/09 05:42:14;;;;;;;;;;;;;;;12.30;71.05;97332.97;4449876;32;31922;-84
2022/04/09 05:44:43;;;;;;;;;;;;;;;12.82;69.62;97325.66;4436598;32;34859;-84
2022/04/09 05:47:10;;;;;;;;;;;;;;;12.99;68.68;97333.87;4437552;32;34092;-84
2022/04/09 05:49:37;;;;;;;;;;;;;;;12.73;69.57;97342.38;4447364;32;34336;-83
2022/04/09 05:52:05;;;;;;;;;;;;;;;13.29;67.54;97347.84;4439650;32;33255;-84
2022/04/09 05:54:34;;;;;;;;;;;;;;;13.09;68.11;97350.09;4453156;32;33597;-84
2022/04/09 05:57:02;;;;;;;;;;;;;;;13.06;68.04;97358.81;4452629;32;34109;-86
2022/04/09 05:59:30;;;;;;;;;;;;;;;12.38;70.77;97362.25;4442886;32;34004;-84
2022/04/09 06:01:58;;;;;;;;;;;;;;;12.55;70.49;97358.41;4440173;32;33202;-84
2022/04/09 06:04:26;;;;;;;;;;;;;;;12.91;68.84;97354.03;4451083;32;34798;-85
2022/04/09 06:06:55;;;;;;;;;;;;;;;12.65;69.40;97352.94;4437922;32;35053;-84
2022/04/09 06:09:22;;;;;;;;;;;;;;;12.84;69.28;97352.47;4449513;32;34572;-84
2022/04/09 06:11:50;;;;;;;;;;;;;;;12.96;68.42;97356.53;4454006;32;34405;-84
2022/04/09 06:14:18;;;;;;;;;;;;;;;13.08;68.27;97336.25;4455818;32;33964;-84
2022/04/09 06:16:46;;;;;;;;;;;;;;;12.98;68.41;97352.97;4466141;32;34913;-83
2022/04/09 06:19:14;;;;;;;;;;;;;;;13.05;68.20;97362.34;4460366;32;34828;-84
2022/04/09 06:21:41;;;;;;;;;;;;;;;13.67;65.85;97363.28;4452738;32;33301;-84
2022/04/09 06:24:08;;;;;;;;;;;;;;;13.56;66.02;97341.03;4458991;32;34050;-86
2022/04/09 06:26:36;;;;;;;;;;;;;;;13.25;67.09;97341.00;4459812;32;34313;-84
2022/04/09 06:29:04;;;;;;;;;;;;;;;12.88;68.62;97351.53;4466957;32;34192;-84
2022/04/09 06:31:31;;;;;;;;;;;;;;;13.10;68.18;97331.84;4468333;32;33194;-85
2022/04/09 06:33:59;;;;;;;;;;;;;;;13.45;67.42;97335.28;4456303;32;35162;-85
2022/04/09 06:36:26;;;;;;;;;;;;;;;13.82;66.05;97334.19;4452733;32;34489;-85
2022/04/09 06:38:54;;;;;;;;;;;;;;;14.25;64.27;97338.97;4464781;32;34269;-84
2022/04/09 06:41:21;;;;;;;;;;;;;;;14.05;64.74;97334.37;4464456;32;33706;-83
2022/04/09 06:43:49;;;;;;;;;;;;;;;14.19;64.36;97330.50;4460040;32;33692;-84
2022/04/09 06:46:18;;;;;;;;;;;;;;;14.66;62.12;97344.66;4458859;32;34876;-89
2022/04/09 06:48:49;;;;;;;;;;;;;;;14.09;64.12;97358.56;4458297;32;33109;-85
2022/04/09 06:51:22;;;;;;;;;;;;;;;14.75;61.95;97357.41;4459352;32;33455;-87
2022/04/09 06:53:50;;;;;;;;;;;;;;;14.94;61.04;97362.84;4456905;32;34123;-86
2022/04/09 06:56:18;;;;;;;;;;;;;;;14.18;63.99;97360.06;4462552;32;35440;-83
2022/04/09 06:58:45;;;;;;;;;;;;;;;14.00;64.45;97361.47;4460421;32;33985;-84
2022/04/09 07:01:13;;;;;;;;;;;;;;;14.43;63.55;97355.78;4461445;32;33415;-84
2022/04/09 07:03:41;;;;;;;;;;;;;;;14.57;62.80;97366.66;4462324;32;34594;-84
2022/04/09 07:06:10;;;;;;;;;;;;;;;15.20;61.13;97371.56;4438677;32;34256;-82
2022/04/09 07:08:37;;;;;;;;;;;;;;;15.07;61.48;97365.88;4441529;32;34129;-81
2022/04/09 07:11:04;;;;;;;;;;;;;;;14.64;63.19;97363.87;4465968;32;33748;-82
2022/04/09 07:13:31;;;;;;;;;;;;;;;14.85;62.87;97365.78;4460967;32;34357;-82
2022/04/09 07:15:59;;;;;;;;;;;;;;;15.08;62.17;97360.62;4452326;32;34151;-82
2022/04/09 07:18:26;;;;;;;;;;;;;;;15.56;61.33;97440.78;4452262;32;34512;-81
2022/04/09 07:20:53;;;;;;;;;;;;;;;14.42;65.04;97573.09;4463592;32;34269;-81
2022/04/09 07:23:21;;;;;;;;;;;;;;;13.77;64.62;97591.34;4463073;32;33683;-83
2022/04/09 07:25:48;;;;;;;;;;;;;;;14.07;58.90;97572.31;4460650;32;34336;-83
2022/04/09 07:28:15;;;;;;;;;;;;;;;13.11;61.29;97592.91;4470404;32;34373;-83
2022/04/09 07:30:43;;;;;;;;;;;;;;;13.61;60.23;97589.12;4461816;32;33186;-82
2022/04/09 07:33:10;;;;;;;;;;;;;;;13.03;61.73;97586.97;4468416;32;33399;-79
2022/04/09 07:35:38;;;;;;;;;;;;;;;13.34;60.34;97579.38;4457652;32;33905;-81
2022/04/09 07:38:07;;;;;;;;;;;;;;;14.65;56.85;97563.78;4460490;32;35504;-81
2022/04/09 07:40:36;;;;;;;;;;;;;;;13.57;59.99;97564.06;4453660;32;33493;-83
2022/04/09 07:43:03;;;;;;;;;;;;;;;14.17;58.24;97556.41;4452608;32;34080;-85
2022/04/09 07:45:32;;;;;;;;;;;;;;;14.23;58.30;97549.28;4438361;32;34297;-85
2022/04/09 07:47:59;;;;;;;;;;;;;;;14.26;58.21;97543.12;4452725;32;34049;-83
2022/04/09 07:50:27;;;;;;;;;;;;;;;14.03;58.38;97547.22;4467543;32;34211;-82
2022/04/09 07:52:55;;;;;;;;;;;;;;;13.97;59.66;97555.19;4465281;32;34110;-82
2022/04/09 07:55:23;;;;;;;;;;;;;;;14.57;57.59;97538.78;4455613;32;35302;-81
2022/04/09 07:57:51;;;;;;;;;;;;;;;13.96;59.92;97535.25;4464682;32;34328;-83
2022/04/09 08:00:19;;;;;;;;;;;;;;;15.45;55.63;97536.91;4453149;32;33623;-83
2022/04/09 08:02:46;;;;;;;;;;;;;;;16.12;53.55;97518.09;4463781;32;33710;-85
2022/04/09 08:05:15;;;;;;;;;;;;;;;16.41;52.89;97529.28;4455894;32;34911;-82
2022/04/09 08:07:42;;;;;;;;;;;;;;;16.68;52.40;97532.63;4455414;32;34377;-81
2022/04/09 08:10:11;;;;;;;;;;;;;;;16.80;52.08;97533.97;4483236;32;34334;-82
2022/04/09 08:12:39;;;;;;;;;;;;;;;17.05;52.00;97534.72;4466987;32;33884;-86
2022/04/09 08:15:06;;;;;;;;;;;;;;;17.28;51.36;97531.19;4437926;32;33789;-82
2022/04/09 08:17:36;;;;;;;;;;;;;;;17.74;50.62;97531.91;4452798;32;34192;-82
2022/04/09 08:20:03;;;;;;;;;;;;;;;17.61;51.21;97528.06;4460103;32;33640;-86
2022/04/09 08:22:31;;;;;;;;;;;;;;;17.93;50.20;97538.09;4466735;32;33915;-82
2022/04/09 08:25:01;;;;;;;;;;;;;;;17.87;50.50;97538.34;4452237;32;34115;-82
2022/04/09 08:27:28;;;;;;;;;;;;;;;17.54;51.45;97544.97;4466489;32;34550;-81
2022/04/09 08:29:56;;;;;;;;;;;;;;;17.68;51.10;97553.97;4465160;32;33393;-87
2022/04/09 08:32:25;;;;;;;;;;;;;;;17.72;51.17;97549.44;4465550;32;35554;-85
2022/04/09 08:38:09;;;;;;;;;;;;;;;18.02;49.88;97542.09;4439925;32;33509;-86
2022/04/09 08:40:44;;;;;;;;;;;;;;;17.70;50.58;97551.31;4439982;32;34476;-88
2022/04/09 08:43:14;;;;;;;;;;;;;;;15.15;56.67;97549.19;4446600;32;34360;-87
2022/04/09 08:45:41;;;;;;;;;;;;;;;13.98;60.73;97559.53;4462768;32;35156;-82
2022/04/09 08:48:08;;;;;;;;;;;;;;;15.04;57.84;97553.91;4457208;32;34425;-88
2022/04/09 08:50:36;;;;;;;;;;;;;;;14.13;60.17;97558.28;4450382;32;34412;-89
2022/04/09 08:53:09;;;;;;;;;;;;;;;15.97;55.19;97565.69;4462488;32;35161;-81
2022/04/09 08:55:37;;;;;;;;;;;;;;;16.58;53.58;97567.88;4462448;32;33842;-87
2022/04/09 08:58:04;;;;;;;;;;;;;;;15.70;55.45;97580.56;4459696;32;34502;-93
2022/04/09 09:00:31;;;;;;;;;;;;;;;15.37;56.62;97578.09;4458065;32;33408;-81
2022/04/09 09:03:00;;;;;;;;;;;;;;;16.59;53.27;97575.66;4463237;32;34773;-92
2022/04/09 09:05:52;;;;;;;;;;;;;;;16.05;55.90;97588.03;4465508;32;33513;-91
2022/04/09 09:08:34;;;;;;;;;;;;;;;16.51;54.79;97598.66;4465176;32;33833;-93
2022/04/09 09:11:01;;;;;;;;;;;;;;;15.58;56.64;97608.75;4457105;32;33326;-90
2022/04/09 09:13:29;;;;;;;;;;;;;;;14.84;58.92;97599.72;4464932;32;34208;-91
2022/04/09 09:15:56;;;;;;;;;;;;;;;15.20;57.50;97604.75;4455198;32;35057;-90
2022/04/09 09:18:24;;;;;;;;;;;;;;;14.52;58.91;97600.66;4458860;32;34226;-86
2022/04/09 09:20:57;;;;;;;;;;;;;;;15.72;56.54;97605.75;4462226;32;33333;-89
2022/04/09 09:23:29;;;;;;;;;;;;;;;14.91;57.90;97603.00;4463317;32;33908;-86
2022/04/09 09:25:57;;;;;;;;;;;;;;;15.67;56.22;97604.16;4463975;32;34882;-88
2022/04/09 09:28:25;;;;;;;;;;;;;;;14.94;56.95;97612.50;4465984;32;35046;-85
2022/04/09 09:30:52;;;;;;;;;;;;;;;15.31;55.18;97627.91;4451088;32;33657;-91
2022/04/09 09:33:23;;;;;;;;;;;;;;;14.26;58.75;97644.78;4442680;32;33692;-89
2022/04/09 09:36:10;;;;;;;;;;;;;;;14.42;57.43;97646.09;4456094;32;34089;-89
2022/04/09 09:38:40;;;;;;;;;;;;;;;14.28;57.15;97676.87;4467413;32;34456;-89
2022/04/09 09:41:20;;;;;;;;;;;;;;;12.32;62.38;97688.97;4464659;32;33989;-79
2022/04/09 09:43:59;;;;;;;;;;;;;;;11.81;63.21;97707.09;4442120;32;34878;-87
2022/04/09 09:46:26;;;;;;;;;;;;;;;12.03;62.68;97723.22;4466246;32;34217;-84
2022/04/09 09:48:54;;;;;;;;;;;;;;;12.89;61.11;97717.34;4466347;32;34099;-85
2022/04/09 09:51:22;;;;;;;;;;;;;;;11.93;62.38;97743.28;4467130;32;33288;-82
2022/04/09 09:53:50;;;;;;;;;;;;;;;11.88;61.02;97745.94;4452538;32;33864;-90
2022/04/09 09:56:31;;;;;;;;;;;;;;;11.65;60.21;97758.38;4439683;32;35282;-87
2022/04/09 09:59:00;;;;;;;;;;;;;;;11.78;59.02;97767.72;4451781;32;34203;-92
2022/04/09 10:01:27;;;;;;;;;;;;;;;12.51;57.91;97776.13;4465763;32;33396;-82
2022/04/09 10:03:55;;;;;;;;;;;;;;;11.93;57.69;97772.72;4452479;32;34210;-93
2022/04/09 10:06:22;;;;;;;;;;;;;;;11.37;60.49;97783.87;4443303;32;35297;-85
2022/04/09 10:08:49;;;;;;;;;;;;;;;11.54;60.27;97792.28;4451446;32;34326;-90
2022/04/09 10:11:17;;;;;;;;;;;;;;;12.14;57.50;97787.12;4466944;32;33203;-92
2022/04/09 10:13:47;;;;;;;;;;;;;;;10.92;60.67;97809.44;4452383;32;34671;-87
2022/04/09 10:16:21;;;;;;;;;;;;;;;10.18;62.96;97798.84;4470518;32;35122;-85
2022/04/09 10:18:49;;;;;;;;;;;;;;;10.62;61.95;97811.47;4458928;32;35109;-80
2022/04/09 10:21:16;;;;;;;;;;;;;;;10.77;60.80;97801.81;4450417;32;33484;-90
2022/04/09 10:23:43;;;;;;;;;;;;;;;10.33;61.95;97806.50;4453224;32;35146;-83
2022/04/09 10:26:11;;;;;;;;;;;;;;;10.76;61.03;97805.25;4444476;32;33972;-82
2022/04/09 10:28:39;;;;;;;;;;;;;;;10.37;62.35;97807.34;4467092;32;34891;-82
2022/04/09 10:31:30;;;;;;;;;;;;;;;10.73;59.88;97797.53;4446079;32;34525;-89
2022/04/09 10:34:02;;;;;;;;;;;;;;;10.23;61.95;97799.69;4462392;32;33989;-81
2022/04/09 10:36:44;;;;;;;;;;;;;;;10.15;61.07;97804.91;4465024;32;34189;-81
2022/04/09 10:39:20;;;;;;;;;;;;;;;10.60;58.46;97809.75;4451867;32;35267;-82
2022/04/09 10:41:47;;;;;;;;;;;;;;;9.66;61.40;97813.00;4465466;32;33506;-82
2022/04/09 10:44:35;;;;;;;;;;;;;;;10.00;60.68;97828.34;4459039;32;34306;-82
2022/04/09 10:47:03;;;;;;;;;;;;;;;9.94;60.87;97834.38;4468246;32;34055;-91
2022/04/09 10:49:31;;;;;;;;;;;;;;;9.77;59.70;97867.25;4452579;32;35335;-81
2022/04/09 10:52:11;;;;;;;;;;;;;;;10.36;58.35;97857.47;4453659;32;33781;-80
2022/04/09 10:54:39;;;;;;;;;;;;;;;9.97;59.12;97862.00;4465154;32;35060;-81
2022/04/09 10:57:10;;;;;;;;;;;;;;;10.15;58.62;97850.66;4466231;32;34820;-82
2022/04/09 10:59:38;;;;;;;;;;;;;;;9.99;57.56;97845.56;4468033;32;34542;-78
2022/04/09 11:02:05;;;;;;;;;;;;;;;9.73;57.38;97837.94;4462811;32;33126;-78
2022/04/09 11:04:38;;;;;;;;;;;;;;;9.22;59.75;97852.84;4466642;32;34072;-90
2022/04/09 11:07:09;;;;;;;;;;;;;;;10.15;57.30;97850.66;4463508;32;35032;-90
2022/04/09 11:09:39;;;;;;;;;;;;;;;9.72;58.38;97849.19;4467000;32;34621;-90
2022/04/09 11:12:07;;;;;;;;;;;;;;;9.79;57.45;97862.94;4466743;32;34127;-87
2022/04/09 11:14:44;;;;;;;;;;;;;;;9.98;57.44;97874.94;4467069;32;34616;-88
2022/04/09 11:17:24;;;;;;;;;;;;;;;10.15;55.52;97905.91;4465417;32;34039;-88
2022/04/09 11:19:52;;;;;;;;;;;;;;;9.75;56.26;97900.94;4450163;32;34813;-88
2022/04/09 11:22:19;;;;;;;;;;;;;;;9.31;58.12;97923.50;4437856;32;34158;-80
2022/04/09 11:24:46;;;;;;;;;;;;;;;9.38;57.36;97912.28;4466796;32;33937;-92
2022/04/09 11:27:14;;;;;;;;;;;;;;;9.41;57.06;97930.38;4452462;32;34788;-87
2022/04/09 11:29:42;;;;;;;;;;;;;;;10.18;54.74;97930.91;4458244;32;34086;-93
2022/04/09 11:32:19;;;;;;;;;;;;;;;9.92;55.46;97944.00;4449861;32;34271;-75
2022/04/09 11:34:48;;;;;;;;;;;;;;;9.17;57.34;97950.25;4451177;32;33683;-89
2022/04/09 11:37:15;;;;;;;;;;;;;;;10.16;57.87;97956.84;4461389;32;33847;-81
2022/04/09 11:39:43;;;;;;;;;;;;;;;9.65;55.43;97942.37;4460857;32;33990;-88
2022/04/09 11:42:11;;;;;;;;;;;;;;;9.91;55.60;97931.91;4464262;32;33547;-91
2022/04/09 11:44:41;;;;;;;;;;;;;;;9.45;56.43;97939.84;4452292;32;34031;-91
2022/04/09 11:47:12;;;;;;;;;;;;;;;9.39;56.88;97960.53;4461350;32;34004;-79
2022/04/09 11:49:40;;;;;;;;;;;;;;;9.13;55.31;97952.81;4458022;32;34068;-87
2022/04/09 11:52:08;;;;;;;;;;;;;;;9.95;52.89;97983.69;4463125;32;34187;-85
2022/04/09 11:54:36;;;;;;;;;;;;;;;10.16;53.44;97985.31;4445763;32;34747;-85
2022/04/09 11:57:03;;;;;;;;;;;;;;;9.70;54.06;98001.03;4445607;32;34053;-87
2022/04/09 11:59:31;;;;;;;;;;;;;;;10.03;53.52;98000.91;4451956;32;34044;-87
2022/04/09 12:01:58;;;;;;;;;;;;;;;9.95;52.84;97986.25;4466789;32;33144;-79
2022/04/09 12:04:32;;;;;;;;;;;;;;;9.24;52.28;98005.38;4466433;32;34221;-81
2022/04/09 12:07:01;;;;;;;;;;;;;;;9.89;52.39;98001.84;4442705;32;33995;-80
2022/04/09 12:09:29;;;;;;;;;;;;;;;9.71;52.32;98005.34;4436973;32;33152;-84
2022/04/09 12:12:02;;;;;;;;;;;;;;;10.05;51.49;98012.13;4445868;32;33177;-85
2022/04/09 12:14:30;;;;;;;;;;;;;;;9.79;51.42;98015.66;4463384;32;34054;-83
2022/04/09 12:16:57;;;;;;;;;;;;;;;9.60;52.61;98007.06;4465863;32;34020;-80
2022/04/09 12:19:31;;;;;;;;;;;;;;;9.53;53.47;98030.38;4448747;32;34010;-80
2022/04/09 12:22:13;;;;;;;;;;;;;;;9.33;54.19;98033.00;4449275;32;33040;-80
2022/04/09 12:24:50;;;;;;;;;;;;;;;9.10;52.77;98039.03;4450944;32;33785;-89
2022/04/09 12:27:23;;;;;;;;;;;;;;;9.40;52.30;98016.59;4443354;32;34423;-83
2022/04/09 12:29:54;;;;;;;;;;;;;;;9.22;52.58;98033.84;4452239;32;35206;-80
2022/04/09 12:32:25;;;;;;;;;;;;;;;9.16;52.75;98038.16;4466664;32;33716;-85
2022/04/09 12:34:53;;;;;;;;;;;;;;;9.15;52.56;98020.91;4464894;32;34293;-87
2022/04/09 12:37:20;;;;;;;;;;;;;;;9.56;50.66;98022.62;4468407;32;35364;-87
2022/04/09 12:39:48;;;;;;;;;;;;;;;9.99;50.65;97997.47;4456320;32;35012;-89
2022/04/09 12:42:15;;;;;;;;;;;;;;;9.56;52.00;97997.59;4449196;32;34765;-90
2022/04/09 12:44:45;;;;;;;;;;;;;;;9.93;50.22;97995.78;4463716;32;33840;-88
2022/04/09 12:47:20;;;;;;;;;;;;;;;9.29;52.14;97995.06;4452531;32;33828;-87
2022/04/09 12:49:47;;;;;;;;;;;;;;;10.08;51.15;98002.63;4457157;32;34116;-86
2022/04/09 12:52:14;;;;;;;;;;;;;;;9.99;51.12;97987.97;4464296;32;33275;-91
2022/04/09 12:54:41;;;;;;;;;;;;;;;9.60;52.07;97994.13;4458213;32;34962;-86
2022/04/09 12:57:10;;;;;;;;;;;;;;;9.73;52.36;98008.75;4458771;32;34291;-86
2022/04/09 12:59:38;;;;;;;;;;;;;;;10.75;49.02;98001.44;4467507;32;34428;-85